CheckWX is a tool to help pilots better visualize weather data.  It is not intended as a substitute for an official pre-flight weather briefing.

04:41:28 UTC

KGPI TAF
Glacier Park International Airport
Kalispell, Montana, USA
KGPI 222320Z 2300/2324 VRB04KT P6SM FEW250 FM231200 19002KT P6SM OVC050

Mar-23@
00:00 UTC

Mar-23 @ 00:00 UTC

Mar-23@
12:00 UTC

Mar-23 @ 12:00 UTC

KGPI 222320Z 2300/2324 VRB04KT P6SM FEW250
Wind
  • Variable at 4 KTS
Cloud Levels
  • Few at 25,000' AGL

Mar-23@
12:00 UTC

Mar-23 @ 12:00 UTC

Mar-24@
00:00 UTC

Mar-24 @ 00:00 UTC

FM231200 19002KT P6SM OVC050

From

From Standard forecast or significant change

Wind
  • 190° at 2 KTS
Cloud Levels
  • Overcast at 5,000' AGL